sensor_id;sensor_type;location;lat;lon;timestamp;P1;durP1;ratioP1;P2;durP2;ratioP2
40951;SDS011;26682;51.660;19.338;2022-12-10T00:00:51;132.88;;;54.83;;
40951;SDS011;26682;51.660;19.338;2022-12-10T00:02:38;138.70;;;54.17;;
40951;SDS011;26682;51.660;19.338;2022-12-10T00:04:26;160.93;;;62.08;;
40951;SDS011;26682;51.660;19.338;2022-12-10T00:06:20;175.85;;;65.20;;
40951;SDS011;26682;51.660;19.338;2022-12-10T00:08:09;142.98;;;56.15;;
40951;SDS011;26682;51.660;19.338;2022-12-10T00:09:57;171.68;;;66.72;;
40951;SDS011;26682;51.660;19.338;2022-12-10T00:11:44;119.45;;;46.15;;
40951;SDS011;26682;51.660;19.338;2022-12-10T00:13:32;169.88;;;68.00;;
40951;SDS011;26682;51.660;19.338;2022-12-10T00:15:20;139.50;;;53.47;;
40951;SDS011;26682;51.660;19.338;2022-12-10T00:17:07;216.45;;;77.00;;
40951;SDS011;26682;51.660;19.338;2022-12-10T00:18:58;120.25;;;50.50;;
40951;SDS011;26682;51.660;19.338;2022-12-10T00:20:46;123.22;;;49.17;;
40951;SDS011;26682;51.660;19.338;2022-12-10T00:22:33;132.98;;;52.10;;
40951;SDS011;26682;51.660;19.338;2022-12-10T00:24:20;121.85;;;49.08;;
40951;SDS011;26682;51.660;19.338;2022-12-10T00:26:17;128.68;;;48.47;;
40951;SDS011;26682;51.660;19.338;2022-12-10T00:28:06;170.35;;;60.72;;
40951;SDS011;26682;51.660;19.338;2022-12-10T00:29:53;199.90;;;70.50;;
40951;SDS011;26682;51.660;19.338;2022-12-10T00:31:41;130.82;;;50.60;;
40951;SDS011;26682;51.660;19.338;2022-12-10T00:33:28;116.85;;;48.30;;
40951;SDS011;26682;51.660;19.338;2022-12-10T00:35:15;181.33;;;63.77;;
40951;SDS011;26682;51.660;19.338;2022-12-10T00:37:03;114.25;;;47.05;;
40951;SDS011;26682;51.660;19.338;2022-12-10T00:38:50;150.50;;;56.95;;
40951;SDS011;26682;51.660;19.338;2022-12-10T00:42:26;122.75;;;48.88;;
40951;SDS011;26682;51.660;19.338;2022-12-10T00:44:13;135.37;;;51.20;;
40951;SDS011;26682;51.660;19.338;2022-12-10T00:46:01;142.30;;;52.13;;
40951;SDS011;26682;51.660;19.338;2022-12-10T00:49:36;119.50;;;46.33;;
40951;SDS011;26682;51.660;19.338;2022-12-10T00:51:24;143.57;;;51.47;;
40951;SDS011;26682;51.660;19.338;2022-12-10T00:53:12;183.50;;;65.75;;
40951;SDS011;26682;51.660;19.338;2022-12-10T00:54:59;160.17;;;59.73;;
40951;SDS011;26682;51.660;19.338;2022-12-10T00:56:46;108.70;;;46.47;;
40951;SDS011;26682;51.660;19.338;2022-12-10T00:58:34;153.13;;;59.22;;
40951;SDS011;26682;51.660;19.338;2022-12-10T01:00:22;160.02;;;60.58;;
40951;SDS011;26682;51.660;19.338;2022-12-10T01:02:10;130.10;;;51.92;;
40951;SDS011;26682;51.660;19.338;2022-12-10T01:03:59;138.15;;;56.38;;
40951;SDS011;26682;51.660;19.338;2022-12-10T01:05:48;151.32;;;57.17;;
40951;SDS011;26682;51.660;19.338;2022-12-10T01:07:35;109.57;;;44.37;;
40951;SDS011;26682;51.660;19.338;2022-12-10T01:09:24;105.72;;;42.53;;
40951;SDS011;26682;51.660;19.338;2022-12-10T01:11:13;100.55;;;41.95;;
40951;SDS011;26682;51.660;19.338;2022-12-10T01:13:01;143.70;;;56.42;;
40951;SDS011;26682;51.660;19.338;2022-12-10T01:16:36;118.50;;;48.65;;
40951;SDS011;26682;51.660;19.338;2022-12-10T01:18:24;152.48;;;59.75;;
40951;SDS011;26682;51.660;19.338;2022-12-10T01:20:11;141.30;;;54.47;;
40951;SDS011;26682;51.660;19.338;2022-12-10T01:21:58;134.38;;;50.42;;
40951;SDS011;26682;51.660;19.338;2022-12-10T01:23:49;141.43;;;56.22;;
40951;SDS011;26682;51.660;19.338;2022-12-10T01:25:38;124.20;;;50.03;;
40951;SDS011;26682;51.660;19.338;2022-12-10T01:27:26;150.55;;;57.78;;
40951;SDS011;26682;51.660;19.338;2022-12-10T01:29:15;118.88;;;49.15;;
40951;SDS011;26682;51.660;19.338;2022-12-10T01:31:07;149.85;;;58.83;;
40951;SDS011;26682;51.660;19.338;2022-12-10T01:32:56;128.05;;;50.88;;
40951;SDS011;26682;51.660;19.338;2022-12-10T01:34:43;138.65;;;54.83;;
40951;SDS011;26682;51.660;19.338;2022-12-10T01:36:32;138.40;;;56.40;;
40951;SDS011;26682;51.660;19.338;2022-12-10T01:38:20;152.40;;;61.22;;
40951;SDS011;26682;51.660;19.338;2022-12-10T01:40:09;129.07;;;53.67;;
40951;SDS011;26682;51.660;19.338;2022-12-10T01:41:58;133.07;;;53.63;;
40951;SDS011;26682;51.660;19.338;2022-12-10T01:43:51;126.70;;;49.88;;
40951;SDS011;26682;51.660;19.338;2022-12-10T01:45:50;128.95;;;54.33;;
40951;SDS011;26682;51.660;19.338;2022-12-10T01:47:37;142.93;;;57.90;;
40951;SDS011;26682;51.660;19.338;2022-12-10T01:49:36;132.25;;;54.95;;
40951;SDS011;26682;51.660;19.338;2022-12-10T01:51:25;131.43;;;55.40;;
40951;SDS011;26682;51.660;19.338;2022-12-10T01:53:15;147.20;;;60.80;;
40951;SDS011;26682;51.660;19.338;2022-12-10T01:55:06;115.93;;;49.42;;
40951;SDS011;26682;51.660;19.338;2022-12-10T01:57:15;107.72;;;48.38;;
40951;SDS011;26682;51.660;19.338;2022-12-10T01:59:03;119.97;;;50.85;;
40951;SDS011;26682;51.660;19.338;2022-12-10T02:00:57;107.85;;;47.25;;
40951;SDS011;26682;51.660;19.338;2022-12-10T02:02:57;127.70;;;53.08;;
40951;SDS011;26682;51.660;19.338;2022-12-10T02:05:03;111.38;;;49.33;;
40951;SDS011;26682;51.660;19.338;2022-12-10T02:07:09;102.13;;;43.25;;
40951;SDS011;26682;51.660;19.338;2022-12-10T02:10:04;97.45;;;42.92;;
40951;SDS011;26682;51.660;19.338;2022-12-10T02:11:45;99.68;;;44.67;;
40951;SDS011;26682;51.660;19.338;2022-12-10T02:13:39;121.18;;;53.95;;
40951;SDS011;26682;51.660;19.338;2022-12-10T02:15:30;109.85;;;47.55;;
40951;SDS011;26682;51.660;19.338;2022-12-10T02:17:21;124.95;;;53.88;;
40951;SDS011;26682;51.660;19.338;2022-12-10T02:19:18;115.75;;;51.10;;
40951;SDS011;26682;51.660;19.338;2022-12-10T02:21:24;124.43;;;56.20;;
40951;SDS011;26682;51.660;19.338;2022-12-10T02:23:22;122.15;;;55.15;;
40951;SDS011;26682;51.660;19.338;2022-12-10T02:25:13;117.93;;;50.03;;
40951;SDS011;26682;51.660;19.338;2022-12-10T02:27:10;133.13;;;58.47;;
40951;SDS011;26682;51.660;19.338;2022-12-10T02:29:17;113.38;;;49.90;;
40951;SDS011;26682;51.660;19.338;2022-12-10T02:31:12;107.32;;;48.75;;
40951;SDS011;26682;51.660;19.338;2022-12-10T02:33:03;119.63;;;53.85;;
40951;SDS011;26682;51.660;19.338;2022-12-10T02:34:55;113.93;;;49.53;;
40951;SDS011;26682;51.660;19.338;2022-12-10T02:36:50;121.95;;;52.10;;
40951;SDS011;26682;51.660;19.338;2022-12-10T02:38:40;115.43;;;51.58;;
40951;SDS011;26682;51.660;19.338;2022-12-10T02:40:31;120.35;;;52.72;;
40951;SDS011;26682;51.660;19.338;2022-12-10T02:42:21;129.63;;;54.83;;
40951;SDS011;26682;51.660;19.338;2022-12-10T02:44:12;117.38;;;49.05;;
40951;SDS011;26682;51.660;19.338;2022-12-10T02:46:04;119.13;;;52.22;;
40951;SDS011;26682;51.660;19.338;2022-12-10T02:47:53;117.45;;;49.25;;
40951;SDS011;26682;51.660;19.338;2022-12-10T02:49:51;120.38;;;51.35;;
40951;SDS011;26682;51.660;19.338;2022-12-10T02:51:42;114.47;;;50.45;;
40951;SDS011;26682;51.660;19.338;2022-12-10T02:53:30;123.03;;;48.83;;
40951;SDS011;26682;51.660;19.338;2022-12-10T02:55:17;121.63;;;49.87;;
40951;SDS011;26682;51.660;19.338;2022-12-10T02:57:21;126.53;;;55.80;;
40951;SDS011;26682;51.660;19.338;2022-12-10T02:59:38;126.32;;;51.17;;
40951;SDS011;26682;51.660;19.338;2022-12-10T03:03:56;112.93;;;51.25;;
40951;SDS011;26682;51.660;19.338;2022-12-10T03:07:51;121.65;;;52.08;;
40951;SDS011;26682;51.660;19.338;2022-12-10T03:09:49;104.57;;;48.65;;
40951;SDS011;26682;51.660;19.338;2022-12-10T03:11:40;112.15;;;44.65;;
40951;SDS011;26682;51.660;19.338;2022-12-10T03:13:35;110.97;;;48.88;;
40951;SDS011;26682;51.660;19.338;2022-12-10T03:15:45;103.95;;;42.65;;
40951;SDS011;26682;51.660;19.338;2022-12-10T03:17:36;114.45;;;48.63;;
40951;SDS011;26682;51.660;19.338;2022-12-10T03:19:28;102.40;;;46.17;;
40951;SDS011;26682;51.660;19.338;2022-12-10T03:21:23;75.23;;;33.27;;
40951;SDS011;26682;51.660;19.338;2022-12-10T03:23:14;99.25;;;42.25;;
40951;SDS011;26682;51.660;19.338;2022-12-10T03:25:03;92.70;;;43.25;;
40951;SDS011;26682;51.660;19.338;2022-12-10T03:26:52;88.72;;;40.33;;
40951;SDS011;26682;51.660;19.338;2022-12-10T03:28:40;101.57;;;44.42;;
40951;SDS011;26682;51.660;19.338;2022-12-10T03:30:32;94.13;;;42.63;;
40951;SDS011;26682;51.660;19.338;2022-12-10T03:32:23;95.75;;;41.35;;
40951;SDS011;26682;51.660;19.338;2022-12-10T03:34:13;97.95;;;43.70;;
40951;SDS011;26682;51.660;19.338;2022-12-10T03:36:00;101.55;;;47.17;;
40951;SDS011;26682;51.660;19.338;2022-12-10T03:37:48;97.30;;;45.55;;
40951;SDS011;26682;51.660;19.338;2022-12-10T03:41:23;100.50;;;45.90;;
40951;SDS011;26682;51.660;19.338;2022-12-10T03:43:13;107.43;;;48.25;;
40951;SDS011;26682;51.660;19.338;2022-12-10T03:45:01;92.68;;;40.72;;
40951;SDS011;26682;51.660;19.338;2022-12-10T03:46:48;91.45;;;44.40;;
40951;SDS011;26682;51.660;19.338;2022-12-10T03:48:37;95.53;;;44.40;;
40951;SDS011;26682;51.660;19.338;2022-12-10T03:50:24;98.10;;;45.47;;
40951;SDS011;26682;51.660;19.338;2022-12-10T03:52:11;94.78;;;45.50;;
40951;SDS011;26682;51.660;19.338;2022-12-10T03:53:58;97.05;;;44.97;;
40951;SDS011;26682;51.660;19.338;2022-12-10T03:55:45;92.55;;;42.38;;
40951;SDS011;26682;51.660;19.338;2022-12-10T03:57:33;97.07;;;41.92;;
40951;SDS011;26682;51.660;19.338;2022-12-10T03:59:20;90.53;;;42.15;;
40951;SDS011;26682;51.660;19.338;2022-12-10T04:01:08;96.63;;;43.80;;
40951;SDS011;26682;51.660;19.338;2022-12-10T04:02:55;102.28;;;45.67;;
40951;SDS011;26682;51.660;19.338;2022-12-10T04:04:42;105.43;;;47.40;;
40951;SDS011;26682;51.660;19.338;2022-12-10T04:06:29;106.85;;;46.90;;
40951;SDS011;26682;51.660;19.338;2022-12-10T04:08:17;96.43;;;40.28;;
40951;SDS011;26682;51.660;19.338;2022-12-10T04:10:04;100.57;;;43.70;;
40951;SDS011;26682;51.660;19.338;2022-12-10T04:11:56;103.30;;;45.67;;
40951;SDS011;26682;51.660;19.338;2022-12-10T04:13:44;103.28;;;43.58;;
40951;SDS011;26682;51.660;19.338;2022-12-10T04:15:50;99.45;;;45.42;;
40951;SDS011;26682;51.660;19.338;2022-12-10T04:17:55;113.13;;;47.00;;
40951;SDS011;26682;51.660;19.338;2022-12-10T04:19:42;97.97;;;40.57;;
40951;SDS011;26682;51.660;19.338;2022-12-10T04:21:31;105.28;;;45.13;;
40951;SDS011;26682;51.660;19.338;2022-12-10T04:23:38;106.22;;;43.63;;
40951;SDS011;26682;51.660;19.338;2022-12-10T04:25:43;99.75;;;44.78;;
40951;SDS011;26682;51.660;19.338;2022-12-10T04:27:49;100.47;;;41.88;;
40951;SDS011;26682;51.660;19.338;2022-12-10T04:29:36;117.90;;;44.75;;
40951;SDS011;26682;51.660;19.338;2022-12-10T04:31:24;109.68;;;44.45;;
40951;SDS011;26682;51.660;19.338;2022-12-10T04:33:11;95.53;;;36.33;;
40951;SDS011;26682;51.660;19.338;2022-12-10T04:34:58;107.53;;;43.77;;
40951;SDS011;26682;51.660;19.338;2022-12-10T04:36:46;107.35;;;43.60;;
40951;SDS011;26682;51.660;19.338;2022-12-10T04:38:34;107.63;;;43.83;;
40951;SDS011;26682;51.660;19.338;2022-12-10T04:40:21;114.93;;;44.90;;
40951;SDS011;26682;51.660;19.338;2022-12-10T04:42:08;117.93;;;45.37;;
40951;SDS011;26682;51.660;19.338;2022-12-10T04:45:43;115.65;;;41.17;;
40951;SDS011;26682;51.660;19.338;2022-12-10T04:47:30;115.60;;;42.22;;
40951;SDS011;26682;51.660;19.338;2022-12-10T04:49:18;117.88;;;48.75;;
40951;SDS011;26682;51.660;19.338;2022-12-10T04:51:05;122.72;;;47.08;;
40951;SDS011;26682;51.660;19.338;2022-12-10T04:52:52;117.33;;;43.27;;
40951;SDS011;26682;51.660;19.338;2022-12-10T04:54:39;121.43;;;46.42;;
40951;SDS011;26682;51.660;19.338;2022-12-10T04:56:27;117.65;;;44.88;;
40951;SDS011;26682;51.660;19.338;2022-12-10T04:58:14;116.93;;;43.97;;
40951;SDS011;26682;51.660;19.338;2022-12-10T05:00:02;126.68;;;44.38;;
40951;SDS011;26682;51.660;19.338;2022-12-10T05:03:37;115.82;;;42.33;;
40951;SDS011;26682;51.660;19.338;2022-12-10T05:05:24;118.15;;;43.03;;
40951;SDS011;26682;51.660;19.338;2022-12-10T05:07:12;130.05;;;43.80;;
40951;SDS011;26682;51.660;19.338;2022-12-10T05:08:59;134.38;;;45.63;;
40951;SDS011;26682;51.660;19.338;2022-12-10T05:10:46;144.60;;;46.58;;
40951;SDS011;26682;51.660;19.338;2022-12-10T05:12:33;150.07;;;47.70;;
40951;SDS011;26682;51.660;19.338;2022-12-10T05:14:20;143.52;;;48.25;;
40951;SDS011;26682;51.660;19.338;2022-12-10T05:16:09;105.28;;;37.70;;
40951;SDS011;26682;51.660;19.338;2022-12-10T05:17:58;141.93;;;44.80;;
40951;SDS011;26682;51.660;19.338;2022-12-10T05:19:45;144.80;;;46.80;;
40951;SDS011;26682;51.660;19.338;2022-12-10T05:21:32;138.07;;;42.78;;
40951;SDS011;26682;51.660;19.338;2022-12-10T05:23:40;141.40;;;46.13;;
40951;SDS011;26682;51.660;19.338;2022-12-10T05:25:28;136.55;;;45.38;;
40951;SDS011;26682;51.660;19.338;2022-12-10T05:27:16;144.25;;;47.60;;
40951;SDS011;26682;51.660;19.338;2022-12-10T05:29:03;146.20;;;47.47;;
40951;SDS011;26682;51.660;19.338;2022-12-10T05:30:50;148.93;;;48.42;;
40951;SDS011;26682;51.660;19.338;2022-12-10T05:32:37;140.05;;;47.22;;
40951;SDS011;26682;51.660;19.338;2022-12-10T05:34:25;158.32;;;48.70;;
40951;SDS011;26682;51.660;19.338;2022-12-10T05:36:13;143.50;;;48.40;;
40951;SDS011;26682;51.660;19.338;2022-12-10T05:38:02;149.50;;;47.15;;
40951;SDS011;26682;51.660;19.338;2022-12-10T05:39:49;136.60;;;46.42;;
40951;SDS011;26682;51.660;19.338;2022-12-10T05:41:36;152.53;;;49.57;;
40951;SDS011;26682;51.660;19.338;2022-12-10T05:43:25;159.52;;;49.47;;
40951;SDS011;26682;51.660;19.338;2022-12-10T05:45:13;161.15;;;48.08;;
40951;SDS011;26682;51.660;19.338;2022-12-10T05:47:00;112.97;;;37.22;;
40951;SDS011;26682;51.660;19.338;2022-12-10T05:48:47;172.32;;;51.88;;
40951;SDS011;26682;51.660;19.338;2022-12-10T05:52:22;144.02;;;41.78;;
40951;SDS011;26682;51.660;19.338;2022-12-10T05:54:09;166.55;;;50.55;;
40951;SDS011;26682;51.660;19.338;2022-12-10T05:56:06;180.15;;;52.17;;
40951;SDS011;26682;51.660;19.338;2022-12-10T05:57:56;172.07;;;50.63;;
40951;SDS011;26682;51.660;19.338;2022-12-10T05:59:44;167.20;;;47.40;;
40951;SDS011;26682;51.660;19.338;2022-12-10T06:01:33;164.90;;;51.08;;
40951;SDS011;26682;51.660;19.338;2022-12-10T06:03:21;178.38;;;52.67;;
40951;SDS011;26682;51.660;19.338;2022-12-10T06:05:08;169.13;;;51.42;;
40951;SDS011;26682;51.660;19.338;2022-12-10T06:06:56;171.13;;;51.03;;
40951;SDS011;26682;51.660;19.338;2022-12-10T06:08:43;178.02;;;50.33;;
40951;SDS011;26682;51.660;19.338;2022-12-10T06:10:30;178.05;;;52.15;;
40951;SDS011;26682;51.660;19.338;2022-12-10T06:12:17;158.43;;;47.88;;
40951;SDS011;26682;51.660;19.338;2022-12-10T06:14:05;174.40;;;49.17;;
40951;SDS011;26682;51.660;19.338;2022-12-10T06:15:52;188.00;;;52.00;;
40951;SDS011;26682;51.660;19.338;2022-12-10T06:17:39;188.75;;;51.55;;
40951;SDS011;26682;51.660;19.338;2022-12-10T06:19:27;182.77;;;50.97;;
40951;SDS011;26682;51.660;19.338;2022-12-10T06:21:15;179.93;;;50.65;;
40951;SDS011;26682;51.660;19.338;2022-12-10T06:23:03;169.63;;;50.15;;
40951;SDS011;26682;51.660;19.338;2022-12-10T06:24:50;178.40;;;49.08;;
40951;SDS011;26682;51.660;19.338;2022-12-10T06:26:39;170.15;;;49.58;;
40951;SDS011;26682;51.660;19.338;2022-12-10T06:28:26;141.98;;;39.92;;
40951;SDS011;26682;51.660;19.338;2022-12-10T06:30:13;166.88;;;48.25;;
40951;SDS011;26682;51.660;19.338;2022-12-10T06:33:47;154.45;;;43.85;;
40951;SDS011;26682;51.660;19.338;2022-12-10T06:35:36;157.60;;;46.15;;
40951;SDS011;26682;51.660;19.338;2022-12-10T06:37:24;155.60;;;42.72;;
40951;SDS011;26682;51.660;19.338;2022-12-10T06:39:11;167.98;;;49.53;;
40951;SDS011;26682;51.660;19.338;2022-12-10T06:40:59;168.35;;;48.85;;
40951;SDS011;26682;51.660;19.338;2022-12-10T06:44:36;138.20;;;40.17;;
40951;SDS011;26682;51.660;19.338;2022-12-10T06:46:24;154.13;;;45.30;;
40951;SDS011;26682;51.660;19.338;2022-12-10T06:48:14;153.75;;;47.78;;
40951;SDS011;26682;51.660;19.338;2022-12-10T06:50:01;114.40;;;33.20;;
40951;SDS011;26682;51.660;19.338;2022-12-10T06:51:48;154.57;;;45.75;;
40951;SDS011;26682;51.660;19.338;2022-12-10T06:53:36;157.60;;;48.40;;
40951;SDS011;26682;51.660;19.338;2022-12-10T06:55:24;157.02;;;48.70;;
40951;SDS011;26682;51.660;19.338;2022-12-10T06:57:11;158.27;;;46.63;;
40951;SDS011;26682;51.660;19.338;2022-12-10T06:58:58;158.63;;;46.85;;
40951;SDS011;26682;51.660;19.338;2022-12-10T07:00:45;149.43;;;47.50;;
40951;SDS011;26682;51.660;19.338;2022-12-10T07:02:32;144.90;;;46.22;;
40951;SDS011;26682;51.660;19.338;2022-12-10T07:06:08;163.82;;;49.25;;
40951;SDS011;26682;51.660;19.338;2022-12-10T07:07:56;149.38;;;44.90;;
40951;SDS011;26682;51.660;19.338;2022-12-10T07:09:44;148.80;;;46.08;;
40951;SDS011;26682;51.660;19.338;2022-12-10T07:11:31;143.37;;;47.47;;
40951;SDS011;26682;51.660;19.338;2022-12-10T07:13:18;160.07;;;48.97;;
40951;SDS011;26682;51.660;19.338;2022-12-10T07:15:05;138.77;;;44.22;;
40951;SDS011;26682;51.660;19.338;2022-12-10T07:16:53;142.38;;;46.47;;
40951;SDS011;26682;51.660;19.338;2022-12-10T07:18:40;135.67;;;44.23;;
40951;SDS011;26682;51.660;19.338;2022-12-10T07:20:34;133.40;;;46.00;;
40951;SDS011;26682;51.660;19.338;2022-12-10T07:22:21;150.53;;;48.77;;
40951;SDS011;26682;51.660;19.338;2022-12-10T07:24:13;144.20;;;47.80;;
40951;SDS011;26682;51.660;19.338;2022-12-10T07:26:04;125.75;;;44.33;;
40951;SDS011;26682;51.660;19.338;2022-12-10T07:27:52;133.38;;;46.42;;
40951;SDS011;26682;51.660;19.338;2022-12-10T07:29:43;148.13;;;48.42;;
40951;SDS011;26682;51.660;19.338;2022-12-10T07:33:18;135.60;;;45.40;;
40951;SDS011;26682;51.660;19.338;2022-12-10T07:35:06;126.13;;;44.87;;
40951;SDS011;26682;51.660;19.338;2022-12-10T07:36:53;123.55;;;44.67;;
40951;SDS011;26682;51.660;19.338;2022-12-10T07:38:41;134.10;;;51.00;;
40951;SDS011;26682;51.660;19.338;2022-12-10T07:40:28;143.73;;;52.22;;
40951;SDS011;26682;51.660;19.338;2022-12-10T07:42:16;137.95;;;49.83;;
40951;SDS011;26682;51.660;19.338;2022-12-10T07:44:03;138.32;;;50.38;;
40951;SDS011;26682;51.660;19.338;2022-12-10T07:45:53;136.02;;;47.95;;
40951;SDS011;26682;51.660;19.338;2022-12-10T07:47:40;125.32;;;44.33;;
40951;SDS011;26682;51.660;19.338;2022-12-10T07:49:28;98.47;;;37.25;;
40951;SDS011;26682;51.660;19.338;2022-12-10T07:51:17;128.77;;;44.90;;
40951;SDS011;26682;51.660;19.338;2022-12-10T07:53:07;131.77;;;47.30;;
40951;SDS011;26682;51.660;19.338;2022-12-10T07:54:54;117.50;;;44.80;;
40951;SDS011;26682;51.660;19.338;2022-12-10T07:56:41;128.03;;;47.23;;
40951;SDS011;26682;51.660;19.338;2022-12-10T07:58:29;120.88;;;44.80;;
40951;SDS011;26682;51.660;19.338;2022-12-10T08:00:16;125.50;;;50.33;;
40951;SDS011;26682;51.660;19.338;2022-12-10T08:02:03;181.57;;;97.00;;
40951;SDS011;26682;51.660;19.338;2022-12-10T08:03:55;137.82;;;57.70;;
40951;SDS011;26682;51.660;19.338;2022-12-10T08:05:43;133.68;;;62.72;;
40951;SDS011;26682;51.660;19.338;2022-12-10T08:07:30;122.00;;;50.95;;
40951;SDS011;26682;51.660;19.338;2022-12-10T08:09:17;126.38;;;55.35;;
40951;SDS011;26682;51.660;19.338;2022-12-10T08:11:05;116.13;;;47.65;;
40951;SDS011;26682;51.660;19.338;2022-12-10T08:12:52;119.07;;;54.25;;
40951;SDS011;26682;51.660;19.338;2022-12-10T08:14:40;117.60;;;48.78;;
40951;SDS011;26682;51.660;19.338;2022-12-10T08:16:28;109.95;;;43.08;;
40951;SDS011;26682;51.660;19.338;2022-12-10T08:18:17;110.10;;;44.65;;
40951;SDS011;26682;51.660;19.338;2022-12-10T08:20:05;103.65;;;44.05;;
40951;SDS011;26682;51.660;19.338;2022-12-10T08:21:53;107.68;;;45.22;;
40951;SDS011;26682;51.660;19.338;2022-12-10T08:23:41;112.18;;;45.95;;
40951;SDS011;26682;51.660;19.338;2022-12-10T08:25:29;100.25;;;45.38;;
40951;SDS011;26682;51.660;19.338;2022-12-10T08:27:22;110.13;;;46.03;;
40951;SDS011;26682;51.660;19.338;2022-12-10T08:29:10;107.15;;;44.35;;
40951;SDS011;26682;51.660;19.338;2022-12-10T08:30:58;109.22;;;43.35;;
40951;SDS011;26682;51.660;19.338;2022-12-10T08:32:45;137.20;;;66.40;;
40951;SDS011;26682;51.660;19.338;2022-12-10T08:34:32;122.60;;;53.23;;
40951;SDS011;26682;51.660;19.338;2022-12-10T08:36:19;103.38;;;42.58;;
40951;SDS011;26682;51.660;19.338;2022-12-10T08:39:54;74.93;;;33.33;;
40951;SDS011;26682;51.660;19.338;2022-12-10T08:41:44;101.32;;;43.35;;
40951;SDS011;26682;51.660;19.338;2022-12-10T08:43:32;103.93;;;42.92;;
40951;SDS011;26682;51.660;19.338;2022-12-10T08:47:09;95.30;;;39.55;;
40951;SDS011;26682;51.660;19.338;2022-12-10T08:48:56;97.32;;;41.63;;
40951;SDS011;26682;51.660;19.338;2022-12-10T08:50:44;105.45;;;45.53;;
40951;SDS011;26682;51.660;19.338;2022-12-10T08:54:19;90.68;;;39.33;;
40951;SDS011;26682;51.660;19.338;2022-12-10T08:56:07;88.63;;;39.38;;
40951;SDS011;26682;51.660;19.338;2022-12-10T08:57:59;87.22;;;38.70;;
40951;SDS011;26682;51.660;19.338;2022-12-10T08:59:46;93.45;;;41.30;;
40951;SDS011;26682;51.660;19.338;2022-12-10T09:01:34;89.15;;;41.22;;
40951;SDS011;26682;51.660;19.338;2022-12-10T09:03:21;97.07;;;42.25;;
40951;SDS011;26682;51.660;19.338;2022-12-10T09:05:08;82.85;;;39.75;;
40951;SDS011;26682;51.660;19.338;2022-12-10T09:06:56;90.57;;;39.90;;
40951;SDS011;26682;51.660;19.338;2022-12-10T09:10:35;91.93;;;41.35;;
40951;SDS011;26682;51.660;19.338;2022-12-10T09:12:23;108.35;;;46.47;;
40951;SDS011;26682;51.660;19.338;2022-12-10T09:14:11;87.95;;;41.47;;
40951;SDS011;26682;51.660;19.338;2022-12-10T09:15:59;92.38;;;41.70;;
40951;SDS011;26682;51.660;19.338;2022-12-10T09:17:46;92.72;;;39.40;;
40951;SDS011;26682;51.660;19.338;2022-12-10T09:19:34;107.45;;;47.03;;
40951;SDS011;26682;51.660;19.338;2022-12-10T09:21:22;94.38;;;45.03;;
40951;SDS011;26682;51.660;19.338;2022-12-10T09:23:09;104.07;;;47.33;;
40951;SDS011;26682;51.660;19.338;2022-12-10T09:24:57;93.20;;;43.45;;
40951;SDS011;26682;51.660;19.338;2022-12-10T09:26:47;102.53;;;44.70;;
40951;SDS011;26682;51.660;19.338;2022-12-10T09:28:35;96.25;;;44.63;;
40951;SDS011;26682;51.660;19.338;2022-12-10T09:30:24;103.00;;;48.42;;
40951;SDS011;26682;51.660;19.338;2022-12-10T09:32:12;108.78;;;48.20;;
40951;SDS011;26682;51.660;19.338;2022-12-10T09:33:59;104.20;;;47.10;;
40951;SDS011;26682;51.660;19.338;2022-12-10T09:35:47;91.55;;;43.40;;
40951;SDS011;26682;51.660;19.338;2022-12-10T09:37:34;78.55;;;34.33;;
40951;SDS011;26682;51.660;19.338;2022-12-10T09:39:21;87.33;;;41.50;;
40951;SDS011;26682;51.660;19.338;2022-12-10T09:42:59;96.38;;;46.60;;
40951;SDS011;26682;51.660;19.338;2022-12-10T09:47:21;86.75;;;43.55;;
40951;SDS011;26682;51.660;19.338;2022-12-10T09:51:18;84.57;;;40.92;;
40951;SDS011;26682;51.660;19.338;2022-12-10T09:53:13;80.93;;;40.28;;
40951;SDS011;26682;51.660;19.338;2022-12-10T09:55:05;81.70;;;41.17;;
40951;SDS011;26682;51.660;19.338;2022-12-10T09:57:00;83.93;;;43.58;;
40951;SDS011;26682;51.660;19.338;2022-12-10T09:58:50;80.50;;;41.35;;
40951;SDS011;26682;51.660;19.338;2022-12-10T10:00:39;80.00;;;40.53;;
40951;SDS011;26682;51.660;19.338;2022-12-10T10:02:28;80.55;;;41.97;;
40951;SDS011;26682;51.660;19.338;2022-12-10T10:04:17;80.15;;;42.10;;
40951;SDS011;26682;51.660;19.338;2022-12-10T10:06:04;67.10;;;33.50;;
40951;SDS011;26682;51.660;19.338;2022-12-10T10:08:01;85.07;;;43.08;;
40951;SDS011;26682;51.660;19.338;2022-12-10T10:09:54;87.28;;;42.72;;
40951;SDS011;26682;51.660;19.338;2022-12-10T10:11:46;101.10;;;52.08;;
40951;SDS011;26682;51.660;19.338;2022-12-10T10:13:34;114.43;;;62.13;;
40951;SDS011;26682;51.660;19.338;2022-12-10T10:15:37;217.07;;;120.97;;
40951;SDS011;26682;51.660;19.338;2022-12-10T10:17:36;78.30;;;38.50;;
40951;SDS011;26682;51.660;19.338;2022-12-10T10:19:26;131.10;;;69.72;;
40951;SDS011;26682;51.660;19.338;2022-12-10T10:21:35;77.75;;;36.38;;
40951;SDS011;26682;51.660;19.338;2022-12-10T10:23:25;68.95;;;34.88;;
40951;SDS011;26682;51.660;19.338;2022-12-10T10:25:16;78.95;;;37.05;;
40951;SDS011;26682;51.660;19.338;2022-12-10T10:27:11;79.28;;;38.70;;
40951;SDS011;26682;51.660;19.338;2022-12-10T10:29:02;81.28;;;39.65;;
40951;SDS011;26682;51.660;19.338;2022-12-10T10:30:53;73.18;;;35.03;;
40951;SDS011;26682;51.660;19.338;2022-12-10T10:34:28;74.05;;;37.05;;
40951;SDS011;26682;51.660;19.338;2022-12-10T10:36:15;81.77;;;40.77;;
40951;SDS011;26682;51.660;19.338;2022-12-10T10:38:06;82.95;;;39.90;;
40951;SDS011;26682;51.660;19.338;2022-12-10T10:40:00;76.30;;;36.85;;
40951;SDS011;26682;51.660;19.338;2022-12-10T10:41:49;76.80;;;38.10;;
40951;SDS011;26682;51.660;19.338;2022-12-10T10:43:44;71.63;;;35.43;;
40951;SDS011;26682;51.660;19.338;2022-12-10T10:45:47;73.00;;;36.78;;
40951;SDS011;26682;51.660;19.338;2022-12-10T10:47:37;82.65;;;36.78;;
40951;SDS011;26682;51.660;19.338;2022-12-10T10:49:25;75.82;;;35.28;;
40951;SDS011;26682;51.660;19.338;2022-12-10T10:51:22;81.97;;;38.63;;
40951;SDS011;26682;51.660;19.338;2022-12-10T10:55:39;77.13;;;35.90;;
40951;SDS011;26682;51.660;19.338;2022-12-10T10:57:32;77.75;;;35.88;;
40951;SDS011;26682;51.660;19.338;2022-12-10T10:59:35;79.05;;;35.13;;
40951;SDS011;26682;51.660;19.338;2022-12-10T11:01:25;71.68;;;35.13;;
40951;SDS011;26682;51.660;19.338;2022-12-10T11:03:29;83.20;;;38.72;;
40951;SDS011;26682;51.660;19.338;2022-12-10T11:05:26;70.38;;;35.03;;
40951;SDS011;26682;51.660;19.338;2022-12-10T11:07:38;76.18;;;37.40;;
40951;SDS011;26682;51.660;19.338;2022-12-10T11:09:27;77.97;;;37.10;;